Time;durP1;ratioP1;P1;durP2;ratioP2;P2;SDS_P1;SDS_P2;PMS_P1;PMS_P2;Temp;Humidity;BMP_temperature;BMP_pressure;BME280_temperature;BME280_humidity;BME280_pressure;Samples;Min_cycle;Max_cycle;Signal;HPM_P1;HPM_P2
2022/12/26 00:01:53;;;;;;;119.32;22.48;;;8.10;99.90;;;;;;4869657;29;20053;-73
2022/12/26 00:04:19;;;;;;;96.28;22.17;;;;;;;;;;4867582;29;20044;-73
2022/12/26 00:06:45;;;;;;;114.00;23.80;;;;;;;;;;4898229;29;20051;-73
2022/12/26 00:09:12;;;;;;;111.70;24.40;;;;;;;;;;4883134;29;20037;-73
2022/12/26 00:11:38;;;;;;;114.07;21.88;;;;;;;;;;4871528;29;20053;-73
2022/12/26 00:14:07;;;;;;;109.47;23.67;;;8.10;99.90;;;;;;4863384;29;20041;-73
2022/12/26 00:16:33;;;;;;;130.13;22.73;;;8.20;99.90;;;;;;4881355;29;20069;-73
2022/12/26 00:18:59;;;;;;;110.35;22.77;;;;;;;;;;4880674;29;20047;-73
2022/12/26 00:21:27;;;;;;;123.45;22.52;;;;;;;;;;4855804;29;20048;-73
2022/12/26 00:23:56;;;;;;;124.90;24.70;;;8.20;99.90;;;;;;4881444;29;20087;-73
2022/12/26 00:26:24;;;;;;;124.65;24.75;;;8.10;99.90;;;;;;4865944;29;20052;-73
2022/12/26 00:28:52;;;;;;;136.50;24.25;;;8.10;99.90;;;;;;4875853;29;20080;-73
2022/12/26 00:31:19;;;;;;;138.38;24.40;;;;;;;;;;4866831;29;20053;-73
2022/12/26 00:33:46;;;;;;;111.38;22.42;;;;;;;;;;4862998;29;20052;-73
2022/12/26 00:36:15;;;;;;;114.75;24.23;;;8.30;99.90;;;;;;4891365;29;20040;-73
2022/12/26 00:38:42;;;;;;;117.78;23.00;;;;;;;;;;4888547;29;20401;-73
2022/12/26 00:41:09;;;;;;;130.88;23.10;;;;;;;;;;4887017;29;20184;-74
2022/12/26 00:43:39;;;;;;;115.00;23.30;;;;;;;;;;4888475;29;20040;-73
2022/12/26 00:46:05;;;;;;;111.10;22.20;;;;;;;;;;4881079;29;20105;-73
2022/12/26 00:48:31;;;;;;;106.05;19.92;;;;;;;;;;4896736;29;20049;-73
2022/12/26 00:50:58;;;;;;;105.60;23.48;;;;;;;;;;4879527;29;20497;-73
2022/12/26 00:53:24;;;;;;;110.13;19.90;;;8.40;99.90;;;;;;4897553;29;20127;-73
2022/12/26 00:55:51;;;;;;;128.10;22.60;;;;;;;;;;4877658;29;20073;-73
2022/12/26 00:58:17;;;;;;;126.03;20.15;;;;;;;;;;4862483;29;20041;-73
2022/12/26 01:00:43;;;;;;;121.68;20.75;;;;;;;;;;4864227;29;20473;-73
2022/12/26 01:03:10;;;;;;;106.95;22.48;;;7.90;99.90;;;;;;4852867;29;20063;-73
2022/12/26 01:05:40;;;;;;;122.53;23.70;;;;;;;;;;4879670;29;20088;-73
2022/12/26 01:08:06;;;;;;;113.35;22.50;;;;;;;;;;4862356;29;20052;-73
2022/12/26 01:10:32;;;;;;;121.55;20.70;;;;;;;;;;4871258;29;20424;-73
2022/12/26 01:12:58;;;;;;;118.45;21.15;;;;;;;;;;4878978;29;20044;-73
2022/12/26 01:15:24;;;;;;;109.95;20.52;;;;;;;;;;4875628;29;20045;-73
2022/12/26 01:17:50;;;;;;;126.38;22.80;;;;;;;;;;4866953;29;20045;-73
2022/12/26 01:20:17;;;;;;;107.20;22.60;;;;;;;;;;4893150;29;20077;-73
2022/12/26 01:22:43;;;;;;;110.78;22.42;;;;;;;;;;4898562;29;20393;-73
2022/12/26 01:25:10;;;;;;;114.63;20.30;;;;;;;;;;4884826;29;20048;-73
2022/12/26 01:27:36;;;;;;;118.28;22.52;;;;;;;;;;4891226;29;20533;-73
2022/12/26 01:30:02;;;;;;;91.10;20.48;;;;;;;;;;4851361;29;20435;-73
2022/12/26 01:32:28;;;;;;;122.90;24.17;;;;;;;;;;4873206;29;20426;-73
2022/12/26 01:34:55;;;;;;;100.43;21.15;;;;;;;;;;4884227;29;20437;-73
2022/12/26 01:37:24;;;;;;;93.47;20.77;;;;;;;;;;4888937;29;20049;-73
2022/12/26 01:39:51;;;;;;;115.70;21.63;;;;;;;;;;4865379;29;20137;-73
2022/12/26 01:42:19;;;;;;;114.18;22.40;;;;;;;;;;4866431;29;20056;-73
2022/12/26 01:45:18;;;;;;;94.65;19.98;;;8.20;99.90;;;;;;4857828;29;20037;-73
2022/12/26 01:48:17;;;;;;;100.32;20.33;;;8.20;99.90;;;;;;4878945;29;20049;-73
2022/12/26 01:50:50;;;;;;;88.63;21.83;;;8.10;99.90;;;;;;4857035;29;20536;-73
2022/12/26 01:53:31;;;;;;;86.22;19.98;;;;;;;;;;4875615;29;20092;-74
2022/12/26 01:56:04;;;;;;;84.00;20.15;;;8.10;99.90;;;;;;4865345;29;20053;-73
2022/12/26 01:58:32;;;;;;;75.90;19.95;;;;;;;;;;4873560;29;20051;-73
2022/12/26 02:00:59;;;;;;;64.85;17.40;;;;;;;;;;4875289;29;20085;-73
2022/12/26 02:06:11;;;;;;;66.35;17.42;;;8.20;99.90;;;;;;4865123;29;20048;-73
2022/12/26 02:08:38;;;;;;;59.85;17.02;;;;;;;;;;4872257;29;20397;-73
2022/12/26 02:11:15;;;;;;;70.75;17.95;;;8.30;99.90;;;;;;4883309;29;20063;-73
2022/12/26 02:13:41;;;;;;;70.32;19.92;;;;;;;;;;4867619;29;20043;-73
2022/12/26 02:16:11;;;;;;;65.38;19.98;;;8.40;99.90;;;;;;4883813;29;20048;-72
2022/12/26 02:18:37;;;;;;;67.47;19.10;;;;;;;;;;4879390;29;20028;-72
2022/12/26 02:21:03;;;;;;;70.47;18.67;;;;;;;;;;4892607;29;20049;-73
2022/12/26 02:23:55;;;;;;;63.45;19.08;;;8.20;99.90;;;;;;4882357;29;20045;-73
2022/12/26 02:26:57;;;;;;;65.70;19.13;;;8.40;99.90;;;;;;4865973;29;20044;-73
2022/12/26 02:29:29;;;;;;;77.78;19.70;;;8.20;99.90;;;;;;4875764;29;20131;-73
2022/12/26 02:32:04;;;;;;;71.60;21.92;;;;;;;;;;4877918;29;20100;-72
2022/12/26 02:34:49;;;;;;;73.53;22.10;;;;;;;;;;4876383;29;20041;-72
2022/12/26 02:37:27;;;;;;;80.55;22.80;;;8.50;99.90;;;;;;4887912;29;20044;-72
2022/12/26 02:39:53;;;;;;;86.72;22.42;;;;;;;;;;4873351;29;20117;-72
2022/12/26 02:42:25;;;;;;;83.05;23.55;;;8.40;99.90;;;;;;4864793;29;20048;-72
2022/12/26 02:48:00;;;;;;;84.55;24.70;;;8.50;99.90;;;;;;4892795;29;20060;-72
2022/12/26 03:13:41;;;;;;;99.50;28.70;;;;;;;;;;4881778;29;20508;-72
2022/12/26 03:19:01;;;;;;;116.80;29.80;;;;;;;;;;4881617;29;20053;-73
2022/12/26 03:21:34;;;;;;;102.18;28.42;;;8.50;99.90;;;;;;4881718;29;20495;-72
2022/12/26 03:24:00;;;;;;;111.75;29.60;;;;;;;;;;4898337;29;20446;-72
2022/12/26 03:26:42;;;;;;;106.28;30.13;;;;;;;;;;4873051;29;20127;-72
2022/12/26 03:32:00;;;;;;;87.68;28.17;;;8.40;99.90;;;;;;4872885;29;20067;-72
2022/12/26 03:34:27;;;;;;;115.57;30.27;;;;;;;;;;4896541;29;20052;-72
2022/12/26 03:36:53;;;;;;;103.78;29.42;;;;;;;;;;4878040;29;20108;-73
2022/12/26 04:19:22;;;;;;;94.95;27.95;;;8.60;99.90;;;;;;4814788;29;1434686;-72
2022/12/26 04:20:24;;;;;;;91.00;27.83;;;;;;;;;;4872247;29;20052;-69
2022/12/26 04:45:29;;;;;;;96.38;28.80;;;;;;;;;;4897909;29;20417;-69
2022/12/26 04:50:50;;;;;;;101.03;30.25;;;8.30;99.90;;;;;;4869266;29;20041;-69
2022/12/26 04:53:16;;;;;;;84.22;31.05;;;;;;;;;;4880143;29;20049;-69
2022/12/26 04:55:42;;;;;;;96.63;32.70;;;;;;;;;;4885314;29;20040;-69
2022/12/26 04:58:08;;;;;;;87.72;29.27;;;;;;;;;;4879955;29;20080;-69
2022/12/26 05:00:34;;;;;;;96.55;31.13;;;;;;;;;;4887351;29;20041;-69
2022/12/26 05:11:29;;;;;;;84.15;28.60;;;;;;;;;;4884652;29;20057;-69
2022/12/26 05:13:57;;;;;;;80.25;29.17;;;8.40;99.90;;;;;;4887654;29;20072;-69
2022/12/26 05:30:18;;;;;;;92.88;31.40;;;;;;;;;;4866018;29;20045;-69
2022/12/26 05:35:29;;;;;;;84.35;29.35;;;;;;;;;;4901113;29;20067;-69
2022/12/26 05:37:55;;;;;;;90.35;30.38;;;;;;;;;;4867022;29;20047;-71
2022/12/26 05:40:21;;;;;;;86.38;31.40;;;;;;;;;;4883414;29;20053;-72
2022/12/26 05:42:48;;;;;;;86.60;31.08;;;;;;;;;;4884399;29;20070;-72
2022/12/26 05:45:14;;;;;;;77.82;29.33;;;;;;;;;;4867796;29;20049;-72
2022/12/26 05:47:40;;;;;;;76.20;30.15;;;;;;;;;;4865431;29;20117;-72
2022/12/26 05:50:06;;;;;;;72.97;29.02;;;;;;;;;;4865395;29;20060;-72
2022/12/26 05:52:32;;;;;;;73.93;29.48;;;;;;;;;;4849944;29;20457;-72
2022/12/26 05:54:58;;;;;;;79.70;28.95;;;;;;;;;;4861697;29;20088;-72
2022/12/26 05:57:24;;;;;;;74.82;28.08;;;;;;;;;;4883889;29;20083;-72
2022/12/26 05:59:50;;;;;;;78.05;28.65;;;;;;;;;;4890037;29;20044;-72
2022/12/26 06:02:16;;;;;;;81.78;29.38;;;;;;;;;;4865418;29;20053;-71
2022/12/26 06:04:43;;;;;;;72.85;28.38;;;;;;;;;;4873829;29;20056;-71
2022/12/26 06:07:09;;;;;;;71.18;27.00;;;;;;;;;;4879455;29;20131;-72
2022/12/26 06:09:35;;;;;;;67.35;28.10;;;;;;;;;;4892457;29;20044;-71
2022/12/26 06:12:01;;;;;;;68.78;27.65;;;;;;;;;;4865005;29;20053;-72
2022/12/26 06:14:27;;;;;;;64.18;25.55;;;;;;;;;;4866182;29;20041;-71
2022/12/26 06:16:53;;;;;;;67.88;27.02;;;;;;;;;;4849481;29;20117;-71
2022/12/26 06:19:19;;;;;;;68.97;26.10;;;;;;;;;;4865581;29;20112;-71
2022/12/26 06:21:45;;;;;;;65.72;25.67;;;;;;;;;;4864775;29;20052;-71
2022/12/26 06:24:12;;;;;;;74.50;27.58;;;;;;;;;;4881491;29;20371;-71
2022/12/26 06:26:39;;;;;;;54.20;22.10;;;;;;;;;;4866931;29;20049;-72
2022/12/26 06:29:05;;;;;;;60.97;22.65;;;;;;;;;;4882691;29;20477;-72
2022/12/26 06:31:31;;;;;;;52.42;22.48;;;;;;;;;;4870962;29;20045;-72
2022/12/26 06:33:58;;;;;;;54.95;21.90;;;;;;;;;;4901811;29;20106;-72
2022/12/26 06:36:25;;;;;;;56.65;22.25;;;8.60;99.90;;;;;;4872343;29;20041;-72
2022/12/26 06:38:51;;;;;;;60.45;21.73;;;;;;;;;;4898055;29;20410;-72
2022/12/26 06:41:23;;;;;;;;;;;;;;;;;;4873159;29;20068;-72
2022/12/26 06:43:50;;;;;;;56.92;22.10;;;;;;;;;;4898943;29;19923;-72
2022/12/26 06:46:18;;;;;;;44.25;20.35;;;8.40;99.90;;;;;;4874347;29;20177;-72
2022/12/26 06:48:45;;;;;;;56.50;22.20;;;;;;;;;;4867532;29;20109;-72
2022/12/26 06:51:15;;;;;;;49.65;20.63;;;;;;;;;;4882023;29;20052;-72
2022/12/26 06:53:41;;;;;;;46.47;19.60;;;;;;;;;;4878598;29;20124;-72
2022/12/26 06:56:28;;;;;;;48.10;21.05;;;8.50;99.90;;;;;;4872091;29;20482;-72
2022/12/26 06:58:59;;;;;;;50.42;21.08;;;8.20;99.90;;;;;;4894762;29;20041;-72
2022/12/26 07:01:26;;;;;;;44.42;19.80;;;;;;;;;;4868166;29;20045;-72
2022/12/26 07:03:53;;;;;;;45.40;20.48;;;;;;;;;;4880857;29;20037;-72
2022/12/26 07:06:31;;;;;;;50.40;20.80;;;;;;;;;;4890515;29;20037;-72
2022/12/26 07:08:58;;;;;;;42.92;18.95;;;;;;;;;;4865966;29;20048;-72
2022/12/26 07:11:27;;;;;;;51.97;20.20;;;8.10;99.90;;;;;;4881080;29;20127;-72
2022/12/26 07:13:53;;;;;;;43.95;19.15;;;;;;;;;;4898105;29;20083;-72
2022/12/26 07:16:20;;;;;;;46.60;18.13;;;;;;;;;;4880080;29;20036;-72
2022/12/26 07:18:46;;;;;;;50.33;18.75;;;;;;;;;;4882333;29;20549;-72
2022/12/26 07:21:14;;;;;;;42.25;18.23;;;8.20;99.90;;;;;;4881792;29;20131;-72
2022/12/26 07:23:41;;;;;;;42.30;19.10;;;;;;;;;;4911420;29;20052;-72
2022/12/26 07:26:07;;;;;;;42.10;19.40;;;;;;;;;;4886952;29;20477;-72
2022/12/26 07:28:33;;;;;;;42.65;18.83;;;;;;;;;;4865837;29;20081;-73
2022/12/26 07:30:59;;;;;;;46.03;20.38;;;;;;;;;;4888622;29;20382;-73
2022/12/26 07:33:28;;;;;;;38.65;18.10;;;8.00;99.90;;;;;;4891414;29;20040;-72
2022/12/26 07:35:58;;;;;;;46.15;17.88;;;;;;;;;;4900946;29;20040;-72
2022/12/26 07:38:24;;;;;;;38.88;17.70;;;;;;;;;;4883274;29;20044;-72
2022/12/26 07:40:50;;;;;;;39.00;16.70;;;;;;;;;;4876862;29;20061;-72
2022/12/26 07:43:16;;;;;;;44.85;17.33;;;;;;;;;;4891223;29;20041;-72
2022/12/26 07:45:42;;;;;;;33.95;14.80;;;;;;;;;;4880009;29;20051;-73
2022/12/26 07:48:08;;;;;;;35.10;15.85;;;;;;;;;;4872832;29;20045;-73
2022/12/26 07:50:34;;;;;;;38.47;14.63;;;;;;;;;;4863431;29;20047;-73
2022/12/26 07:53:01;;;;;;;37.67;15.30;;;;;;;;;;4866453;29;20164;-73
2022/12/26 07:55:27;;;;;;;34.72;15.00;;;;;;;;;;4856461;29;20041;-72
2022/12/26 07:57:53;;;;;;;35.22;15.05;;;;;;;;;;4892260;29;20052;-72
2022/12/26 08:00:19;;;;;;;37.33;14.52;;;;;;;;;;4847869;29;20049;-72
2022/12/26 08:02:49;;;;;;;30.63;12.80;;;7.90;99.90;;;;;;4870108;29;20473;-72
2022/12/26 08:05:16;;;;;;;33.95;14.18;;;8.00;99.90;;;;;;4879616;29;20095;-72
2022/12/26 08:07:42;;;;;;;35.35;14.15;;;;;;;;;;4877268;29;20542;-72
2022/12/26 08:10:09;;;;;;;31.15;13.50;;;;;;;;;;4879145;29;20052;-72
2022/12/26 08:12:35;;;;;;;28.25;13.57;;;;;;;;;;4867859;29;20045;-72
2022/12/26 08:15:01;;;;;;;31.92;12.77;;;;;;;;;;4864745;29;20136;-73
2022/12/26 08:17:27;;;;;;;28.33;13.60;;;;;;;;;;4865182;29;20470;-72
2022/12/26 08:19:53;;;;;;;32.33;13.95;;;;;;;;;;4883155;29;20048;-72
2022/12/26 08:22:19;;;;;;;30.38;13.57;;;;;;;;;;4865495;29;20478;-72
2022/12/26 08:24:45;;;;;;;33.60;12.23;;;;;;;;;;4865508;29;20049;-72
2022/12/26 08:27:11;;;;;;;28.50;12.25;;;;;;;;;;4897571;29;20041;-72
2022/12/26 08:29:37;;;;;;;27.63;10.00;;;;;;;;;;4869975;29;20048;-72
2022/12/26 08:32:03;;;;;;;26.75;11.32;;;;;;;;;;4875217;29;20053;-72
2022/12/26 08:34:34;;;;;;;35.00;11.18;;;;;;;;;;4866304;29;20041;-72
2022/12/26 08:37:00;;;;;;;35.63;11.57;;;;;;;;;;4862482;29;20049;-72
2022/12/26 08:39:26;;;;;;;28.63;10.82;;;;;;;;;;4879943;29;20185;-72
2022/12/26 08:41:52;;;;;;;32.17;11.57;;;;;;;;;;4887222;29;20053;-72
2022/12/26 08:44:18;;;;;;;25.77;11.00;;;;;;;;;;4879296;29;20051;-72
2022/12/26 08:46:44;;;;;;;20.42;10.45;;;;;;;;;;4897966;29;20438;-72
2022/12/26 08:49:11;;;;;;;30.48;11.10;;;;;;;;;;4897009;29;20097;-72
2022/12/26 08:51:37;;;;;;;39.13;10.85;;;;;;;;;;4872313;29;20405;-73
2022/12/26 08:54:04;;;;;;;24.48;10.77;;;;;;;;;;4876612;29;20454;-73
2022/12/26 08:56:30;;;;;;;28.73;10.40;;;;;;;;;;4876318;29;20105;-72
2022/12/26 08:58:56;;;;;;;28.80;11.20;;;;;;;;;;4892617;29;20044;-72
2022/12/26 09:01:23;;;;;;;31.67;11.07;;;;;;;;;;4874640;29;20080;-72
2022/12/26 09:03:53;;;;;;;29.77;10.68;;;8.20;99.90;;;;;;4874855;29;20127;-72
2022/12/26 09:06:20;;;;;;;26.33;8.93;;;;;;;;;;4865847;29;20570;-71
2022/12/26 09:08:46;;;;;;;40.90;7.43;;;;;;;;;;4871167;29;20075;-71
2022/12/26 09:11:13;;;;;;;37.85;7.38;;;;;;;;;;4880528;29;20045;-70
2022/12/26 09:13:41;;;;;;;43.95;5.30;;;8.30;99.90;;;;;;4879697;29;20044;-70
2022/12/26 09:16:12;;;;;;;47.28;6.20;;;8.10;99.90;;;;;;4889668;29;20117;-70
2022/12/26 09:18:39;;;;;;;33.55;4.38;;;;;;;;;;4879314;29;20486;-71
2022/12/26 09:21:07;;;;;;;30.42;5.13;;;;;;;;;;4880191;29;20044;-70
2022/12/26 09:23:34;;;;;;;29.77;4.97;;;;;;;;;;4881213;29;20079;-70
2022/12/26 09:26:14;;;;;;;35.38;5.65;;;7.70;99.90;;;;;;4872540;29;20124;-70
2022/12/26 09:28:41;;;;;;;35.38;5.53;;;7.90;99.90;;;;;;4858308;29;20044;-71
2022/12/26 09:31:11;;;;;;;28.55;4.30;;;7.60;99.90;;;;;;4873956;29;20514;-70
2022/12/26 09:33:38;;;;;;;26.58;4.13;;;;;;;;;;4871454;29;20048;-70
2022/12/26 09:36:05;;;;;;;35.90;4.53;;;;;;;;;;4882815;29;20036;-70
2022/12/26 09:38:32;;;;;;;25.95;4.07;;;;;;;;;;4891642;29;20033;-70
2022/12/26 09:41:22;;;;;;;32.58;4.00;;;7.70;99.90;;;;;;4883643;29;20424;-70
2022/12/26 09:44:00;;;;;;;25.55;4.35;;;;;;;;;;4884008;29;20055;-70
2022/12/26 09:46:43;;;;;;;24.63;4.55;;;7.40;99.90;;;;;;4884223;29;20192;-70
2022/12/26 09:49:15;;;;;;;31.55;4.25;;;7.40;99.90;;;;;;4901012;29;20040;-70
2022/12/26 09:51:44;;;;;;;27.38;3.72;;;7.40;99.90;;;;;;4883974;29;20052;-70
2022/12/26 09:54:52;;;;;;;35.20;4.40;;;7.80;99.90;;;;;;4884019;29;20104;-70
2022/12/26 09:57:21;;;;;;;27.55;3.53;;;;;;;;;;4868783;29;20055;-70
2022/12/26 09:59:59;;;;;;;32.85;3.47;;;7.60;99.90;;;;;;4884042;29;20371;-70
2022/12/26 10:02:26;;;;;;;26.65;3.65;;;;;;;;;;4900744;29;20058;-70
2022/12/26 10:04:53;;;;;;;29.45;3.70;;;7.80;99.90;;;;;;4884096;29;20058;-70
2022/12/26 10:07:25;;;;;;;36.00;3.05;;;;;;;;;;4884034;29;20540;-70
2022/12/26 10:09:51;;;;;;;23.33;3.17;;;;;;;;;;4883752;29;20075;-70
2022/12/26 10:12:37;;;;;;;18.52;3.33;;;7.50;99.90;;;;;;4881973;29;20059;-70
2022/12/26 10:15:09;;;;;;;34.95;3.40;;;;;;;;;;4884245;29;20037;-70
2022/12/26 10:17:42;;;;;;;35.63;4.18;;;;;;;;;;4879716;29;20072;-70
2022/12/26 10:20:18;;;;;;;34.00;3.38;;;;;;;;;;4879230;29;20096;-70
2022/12/26 10:23:03;;;;;;;33.88;3.13;;;7.50;99.90;;;;;;4871683;29;20053;-70
2022/12/26 10:26:06;;;;;;;20.00;2.45;;;7.40;99.90;;;;;;4891491;29;20396;-70
2022/12/26 10:29:01;;;;;;;18.75;3.28;;;7.50;99.90;;;;;;4881667;29;20048;-70
2022/12/26 10:31:27;;;;;;;17.65;2.67;;;;;;;;;;4879360;29;20508;-70
2022/12/26 10:34:26;;;;;;;29.60;3.60;;;7.30;99.90;;;;;;4875731;29;20045;-70
2022/12/26 10:37:03;;;;;;;18.58;3.60;;;7.30;99.90;;;;;;4875364;29;20045;-70
2022/12/26 10:39:42;;;;;;;20.75;2.95;;;7.30;99.90;;;;;;4893905;29;20045;-70
2022/12/26 10:42:21;;;;;;;19.67;1.90;;;;;;;;;;4894301;29;20112;-75
2022/12/26 10:44:47;;;;;;;21.63;2.63;;;;;;;;;;4883168;29;20576;-70
2022/12/26 10:47:26;;;;;;;33.30;3.80;;;7.50;99.90;;;;;;4882074;29;20080;-70
2022/12/26 10:49:52;;;;;;;24.92;2.78;;;;;;;;;;4870365;29;20105;-70
2022/12/26 10:52:23;;;;;;;30.67;3.22;;;7.20;99.90;;;;;;4865393;29;20196;-70
2022/12/26 10:54:54;;;;;;;21.38;3.78;;;7.60;99.90;;;;;;4878187;29;20056;-70
2022/12/26 10:57:21;;;;;;;26.13;3.13;;;;;;;;;;4881218;29;20061;-70
2022/12/26 10:59:50;;;;;;;19.30;2.38;;;7.40;99.90;;;;;;4880750;29;20111;-70
2022/12/26 11:02:27;;;;;;;22.95;3.10;;;;;;;;;;4883052;29;20040;-70
2022/12/26 11:05:05;;;;;;;22.08;3.67;;;;;;;;;;4877609;29;20489;-70
2022/12/26 11:07:36;;;;;;;27.38;3.97;;;7.40;99.90;;;;;;4898547;29;20041;-70
2022/12/26 11:10:03;;;;;;;18.38;2.33;;;;;;;;;;4882388;29;20044;-70
2022/12/26 11:12:32;;;;;;;19.38;2.33;;;;;;;;;;4898010;29;20045;-70
2022/12/26 11:14:59;;;;;;;19.58;3.90;;;;;;;;;;4897374;29;20406;-70
2022/12/26 11:17:30;;;;;;;26.40;3.47;;;;;;;;;;4897933;29;20032;-70
2022/12/26 11:20:14;;;;;;;21.25;2.55;;;;;;;;;;4898159;29;20052;-70
2022/12/26 11:22:41;;;;;;;21.90;2.85;;;;;;;;;;4898269;29;20048;-70
2022/12/26 11:25:07;;;;;;;18.90;2.97;;;;;;;;;;4898193;29;20053;-70
2022/12/26 11:27:33;;;;;;;26.85;3.58;;;;;;;;;;4898179;29;20060;-70
2022/12/26 11:30:18;;;;;;;33.35;4.75;;;;;;;;;;4897752;29;20052;-70
2022/12/26 11:32:46;;;;;;;29.92;3.20;;;;;;;;;;4897803;29;20052;-70
2022/12/26 11:35:19;;;;;;;30.17;3.75;;;;;;;;;;4899107;29;20043;-70
2022/12/26 11:37:50;;;;;;;26.95;2.63;;;7.10;99.90;;;;;;4897676;29;20047;-70
2022/12/26 11:40:22;;;;;;;22.17;3.03;;;7.30;99.90;;;;;;4881986;29;20061;-70
2022/12/26 11:42:53;;;;;;;24.02;5.03;;;7.30;99.90;;;;;;4882196;29;20060;-70
2022/12/26 11:45:21;;;;;;;32.05;4.45;;;;;;;;;;4882112;29;20103;-70
2022/12/26 11:47:47;;;;;;;27.42;3.55;;;;;;;;;;4897572;29;20045;-70
2022/12/26 11:50:20;;;;;;;35.10;4.95;;;7.70;99.90;;;;;;4898731;29;20048;-70
2022/12/26 11:52:56;;;;;;;30.42;3.75;;;7.80;99.90;;;;;;4881931;29;20044;-70
2022/12/26 11:55:26;;;;;;;32.50;3.75;;;7.90;99.90;;;;;;4882692;29;20045;-71
2022/12/26 11:58:08;;;;;;;23.77;4.05;;;;;;;;;;4881798;29;20071;-70
2022/12/26 12:00:34;;;;;;;35.00;4.35;;;;;;;;;;4882095;29;20394;-70
2022/12/26 12:03:01;;;;;;;27.02;3.38;;;7.60;99.90;;;;;;4897289;29;20057;-71
2022/12/26 12:05:38;;;;;;;33.55;5.43;;;7.50;99.90;;;;;;4881982;29;20048;-70
2022/12/26 12:08:15;;;;;;;27.90;3.80;;;7.60;99.90;;;;;;4881580;29;20094;-70
2022/12/26 12:10:43;;;;;;;24.42;3.85;;;;;;;;;;4881802;29;20104;-70
2022/12/26 12:13:22;;;;;;;17.65;3.50;;;7.50;99.90;;;;;;4896997;29;20049;-70
2022/12/26 12:15:48;;;;;;;36.25;5.00;;;;;;;;;;4881576;29;20116;-70
2022/12/26 12:18:14;;;;;;;37.25;5.43;;;;;;;;;;4881298;29;20041;-70
2022/12/26 12:21:00;;;;;;;33.08;3.83;;;;;;;;;;4881582;29;20044;-70
2022/12/26 12:23:26;;;;;;;32.47;4.13;;;;;;;;;;4881678;29;20051;-70
2022/12/26 12:25:53;;;;;;;42.83;3.80;;;;;;;;;;4881491;29;20060;-70
2022/12/26 12:28:31;;;;;;;31.50;4.03;;;;;;;;;;4898204;29;20040;-70
2022/12/26 12:31:06;;;;;;;24.75;3.38;;;;;;;;;;4881605;29;20052;-70
2022/12/26 12:33:32;;;;;;;19.92;3.05;;;;;;;;;;4896978;29;20386;-70
2022/12/26 12:36:10;;;;;;;24.65;3.33;;;7.80;99.90;;;;;;4881432;29;20045;-70
2022/12/26 12:39:10;;;;;;;27.10;3.10;;;7.70;99.90;;;;;;4881548;29;20040;-70
2022/12/26 12:41:52;;;;;;;33.65;3.75;;;;;;;;;;4878106;29;20048;-70
2022/12/26 12:44:42;;;;;;;28.95;4.82;;;7.80;99.90;;;;;;4898181;29;20100;-70
2022/12/26 12:47:23;;;;;;;27.75;4.38;;;8.00;99.90;;;;;;4881534;29;20389;-70
2022/12/26 12:49:58;;;;;;;28.52;3.42;;;;;;;;;;4881383;29;20052;-70
2022/12/26 12:53:01;;;;;;;35.13;3.15;;;7.90;99.90;;;;;;4881323;29;20049;-70
2022/12/26 12:55:27;;;;;;;;;;;;;;;;;;4881547;29;20047;-70
2022/12/26 12:58:02;;;;;;;27.27;2.78;;;7.70;99.90;;;;;;4881449;29;19924;-71
2022/12/26 13:00:38;;;;;;;26.65;3.17;;;7.80;99.90;;;;;;4881132;29;20049;-70
2022/12/26 13:03:19;;;;;;;24.60;3.35;;;;;;;;;;4881160;29;20053;-71
2022/12/26 13:06:00;;;;;;;25.15;4.13;;;7.90;99.90;;;;;;4881269;29;20048;-71
2022/12/26 13:08:48;;;;;;;36.63;5.55;;;;;;;;;;4881492;29;20074;-71
2022/12/26 13:11:24;;;;;;;26.38;4.40;;;;;;;;;;4899330;29;20076;-70
2022/12/26 13:13:59;;;;;;;29.95;3.25;;;7.70;99.90;;;;;;4900645;29;20408;-72
2022/12/26 13:16:42;;;;;;;32.15;3.90;;;7.90;99.90;;;;;;4885073;29;20049;-72
2022/12/26 13:19:17;;;;;;;24.15;3.08;;;7.70;99.90;;;;;;4884826;29;20052;-72
2022/12/26 13:21:44;;;;;;;33.33;3.90;;;7.60;99.90;;;;;;4884674;29;20056;-72
2022/12/26 13:24:24;;;;;;;37.30;4.20;;;7.30;99.90;;;;;;4884628;29;20128;-72
2022/12/26 13:26:53;;;;;;;35.63;3.92;;;7.60;99.90;;;;;;4901466;29;20426;-72
2022/12/26 13:29:34;;;;;;;35.17;4.28;;;;;;;;;;4884568;29;20043;-72
2022/12/26 13:32:03;;;;;;;34.42;4.78;;;7.80;99.90;;;;;;4862164;29;20040;-72
2022/12/26 13:34:29;;;;;;;40.42;4.25;;;;;;;;;;4901190;29;20181;-72
2022/12/26 13:36:57;;;;;;;19.00;2.63;;;7.90;99.90;;;;;;4884567;29;20509;-72
2022/12/26 13:39:23;;;;;;;23.10;2.90;;;;;;;;;;4884378;29;20387;-72
2022/12/26 13:44:36;;;;;;;50.92;6.40;;;;;;;;;;4884082;29;20057;-72
2022/12/26 13:47:02;;;;;;;29.92;4.88;;;;;;;;;;4900989;29;20045;-72
2022/12/26 13:49:29;;;;;;;41.25;4.20;;;;;;;;;;4899593;29;20104;-71
2022/12/26 13:52:21;;;;;;;32.80;3.38;;;7.70;99.90;;;;;;4899793;29;20108;-71
2022/12/26 13:54:47;;;;;;;24.43;3.20;;;;;;;;;;4900877;29;20052;-71
2022/12/26 13:57:38;;;;;;;32.65;3.10;;;;;;;;;;4884010;29;20477;-72
2022/12/26 14:00:39;;;;;;;28.27;3.03;;;7.50;99.90;;;;;;4877186;29;20104;-72
2022/12/26 14:03:20;;;;;;;36.85;3.72;;;7.80;99.90;;;;;;4900909;29;20378;-72
2022/12/26 14:05:49;;;;;;;26.60;3.28;;;;;;;;;;4884270;29;20405;-72
2022/12/26 14:08:15;;;;;;;33.22;3.80;;;;;;;;;;4883706;29;20123;-72
2022/12/26 14:10:42;;;;;;;32.90;3.80;;;;;;;;;;4899339;29;20056;-72
2022/12/26 14:13:26;;;;;;;28.52;4.32;;;;;;;;;;4899282;29;20598;-72
2022/12/26 14:16:28;;;;;;;28.48;2.83;;;;;;;;;;4899518;29;20398;-72
2022/12/26 14:19:05;;;;;;;29.40;3.58;;;7.60;99.90;;;;;;4843039;29;20094;-72
2022/12/26 14:21:31;;;;;;;29.42;3.78;;;;;;;;;;4878976;29;20135;-72
2022/12/26 14:24:25;;;;;;;32.90;3.85;;;7.40;99.90;;;;;;4899129;29;20067;-72
2022/12/26 14:27:12;;;;;;;17.35;3.03;;;7.40;99.90;;;;;;4883708;29;20055;-72
2022/12/26 14:30:03;;;;;;;21.38;3.25;;;;;;;;;;4883469;29;20060;-72
2022/12/26 14:32:39;;;;;;;22.70;3.38;;;;;;;;;;4871769;29;20061;-72
2022/12/26 14:35:13;;;;;;;33.00;3.40;;;7.20;99.90;;;;;;4883439;29;20154;-72
2022/12/26 14:37:45;;;;;;;22.23;3.05;;;7.40;99.90;;;;;;4883086;29;20049;-72
2022/12/26 14:40:33;;;;;;;25.48;2.63;;;7.40;99.90;;;;;;4867617;29;20109;-72
2022/12/26 14:43:34;;;;;;;27.80;2.88;;;7.50;99.90;;;;;;4883365;29;20549;-72
2022/12/26 14:46:02;;;;;;;20.13;2.88;;;7.20;99.90;;;;;;4871352;29;20063;-72
2022/12/26 14:48:28;;;;;;;29.13;3.40;;;;;;;;;;4899961;29;20051;-72
2022/12/26 14:50:55;;;;;;;21.40;2.92;;;;;;;;;;4898730;29;20063;-72
2022/12/26 14:53:27;;;;;;;33.72;3.65;;;;;;;;;;4883019;29;20049;-72
2022/12/26 14:56:02;;;;;;;21.38;2.85;;;7.20;99.90;;;;;;4882967;29;20060;-72
2022/12/26 14:58:39;;;;;;;23.30;4.22;;;6.90;99.90;;;;;;4883243;29;20048;-72
2022/12/26 15:01:08;;;;;;;26.80;3.95;;;;;;;;;;4867505;29;20044;-72
2022/12/26 15:03:53;;;;;;;25.33;3.95;;;;;;;;;;4883039;29;20049;-71
2022/12/26 15:06:19;;;;;;;36.08;5.50;;;;;;;;;;4882759;29;20056;-71
2022/12/26 15:08:54;;;;;;;43.00;3.92;;;;;;;;;;4882631;29;20131;-71
2022/12/26 15:11:39;;;;;;;23.17;3.90;;;;;;;;;;4882543;29;20104;-71
2022/12/26 15:14:24;;;;;;;24.70;4.22;;;;;;;;;;4876011;29;20081;-71
2022/12/26 15:16:56;;;;;;;23.17;3.22;;;;;;;;;;4864382;29;20128;-71
2022/12/26 15:19:28;;;;;;;41.40;5.75;;;;;;;;;;4878177;29;20077;-71
2022/12/26 15:22:03;;;;;;;21.08;3.42;;;;;;;;;;4880232;29;20071;-71
2022/12/26 15:24:35;;;;;;;21.10;3.65;;;;;;;;;;4877749;29;20045;-71
2022/12/26 15:27:21;;;;;;;21.65;3.60;;;;;;;;;;4878307;29;20051;-71
2022/12/26 15:29:47;;;;;;;35.90;3.45;;;;;;;;;;4877385;29;20049;-71
2022/12/26 15:32:20;;;;;;;38.10;5.55;;;;;;;;;;4881767;29;20096;-71
2022/12/26 15:34:52;;;;;;;17.15;3.65;;;;;;;;;;4881592;29;20044;-71
2022/12/26 15:37:56;;;;;;;23.58;5.38;;;6.50;99.90;;;;;;4869635;29;20045;-71
2022/12/26 15:40:25;;;;;;;39.00;5.55;;;6.40;99.90;;;;;;4842577;29;20053;-71
2022/12/26 15:43:10;;;;;;;31.33;4.60;;;;;;;;;;4875792;29;20502;-71
2022/12/26 15:45:47;;;;;;;39.50;5.20;;;;;;;;;;4869602;29;20098;-70
2022/12/26 15:48:16;;;;;;;29.45;4.30;;;;;;;;;;4881519;29;20501;-74
2022/12/26 15:51:08;;;;;;;33.30;4.18;;;6.60;99.90;;;;;;4880888;29;20135;-74
2022/12/26 15:53:53;;;;;;;42.73;5.73;;;;;;;;;;4887693;29;20135;-74
2022/12/26 15:56:56;;;;;;;29.20;5.45;;;6.40;99.90;;;;;;4873560;29;20289;-74
2022/12/26 15:59:41;;;;;;;33.50;3.97;;;;;;;;;;4902923;29;20045;-74
2022/12/26 16:02:12;;;;;;;24.52;3.60;;;6.30;99.90;;;;;;4894289;29;20509;-75
2022/12/26 16:04:48;;;;;;;25.92;4.78;;;6.30;99.90;;;;;;4897070;29;20056;-74
2022/12/26 16:07:47;;;;;;;17.60;3.55;;;;;;;;;;4881702;29;20103;-74
2022/12/26 16:10:22;;;;;;;26.83;4.45;;;;;;;;;;4829403;29;20049;-74
2022/12/26 16:12:57;;;;;;;32.10;4.47;;;;;;;;;;4865236;29;20053;-75
2022/12/26 16:15:24;;;;;;;26.30;3.40;;;;;;;;;;4880314;29;20044;-74
2022/12/26 16:17:50;;;;;;;20.38;3.67;;;;;;;;;;4897213;29;20041;-74
2022/12/26 16:23:13;;;;;;;22.10;4.28;;;;;;;;;;4864806;29;20049;-74